In Rescue
 
Open Full Screen Window  High Contrast Mode
Wind Gusting 00 knots
04
May 13, 2021 9:05 AM PDT
Present Weather: Mist
Weather Information
Wind Direction
  200 °
Wind Speed
  04 kt (5 mph)
Wind Gust
  00 kt (0 mph)
Altimeter
30.09 in
Visibility
5 SM
Temperature
09° C
48° F
Dewpoint
09° C
48° F
Humidity
100%
1hr Rain Fall
00.00 in.
24hr Rain Fall
00.00 in.
Sky Condition
Overcast @ 500 ft
IFR

METAR KHAF 131605Z AUTO 20004KT 5SM BR OVC005 09/09 A3009 RMK AO2

FAA Disclaimer: The data displayed is for advisory purposes only and is not to be used for flight planning or operations.